createdAt,value
2018-02-10T00:04:14.970Z,4.20
2018-02-10T00:06:43.206Z,4.10
2018-02-10T00:09:11.880Z,4.10
2018-02-10T00:11:41.721Z,4.10
2018-02-10T00:16:40.213Z,4.10
2018-02-10T00:21:39.498Z,4.00
2018-02-10T00:24:07.782Z,4.00
2018-02-10T00:26:38.080Z,3.90
2018-02-10T00:29:06.412Z,3.90
2018-02-10T00:34:04.303Z,3.70
2018-02-10T00:36:34.044Z,3.60
2018-02-10T00:41:32.543Z,3.70
2018-02-10T00:44:00.782Z,3.80
2018-02-10T00:48:59.289Z,3.70
2018-02-10T00:51:27.516Z,3.70
2018-02-10T00:53:55.743Z,3.60
2018-02-10T00:56:24.024Z,3.60
2018-02-10T00:58:53.046Z,3.60
2018-02-10T01:01:21.285Z,3.70
2018-02-10T01:06:19.423Z,3.80
2018-02-10T01:08:47.691Z,3.90
2018-02-10T01:13:46.195Z,3.80
2018-02-10T01:16:14.446Z,3.80
2018-02-10T01:18:43.848Z,3.80
2018-02-10T01:21:12.079Z,3.80
2018-02-10T01:23:41.076Z,3.80
2018-02-10T01:26:09.344Z,3.80
2018-02-10T01:33:37.339Z,3.90
2018-02-10T01:36:05.563Z,3.80
2018-02-10T01:41:04.077Z,3.80
2018-02-10T01:43:33.072Z,3.80
2018-02-10T01:48:31.212Z,3.80
2018-02-10T01:50:59.448Z,3.70
2018-02-10T01:55:57.939Z,3.70
2018-02-10T01:58:27.691Z,3.80
2018-02-10T02:00:55.920Z,3.90
2018-02-10T02:03:24.951Z,3.90
2018-02-10T02:05:54.315Z,3.80
2018-02-10T02:10:52.848Z,3.80
2018-02-10T02:15:51.336Z,3.80
2018-02-10T02:23:18.988Z,4.00
2018-02-10T02:28:17.145Z,3.80
2018-02-10T02:30:45.394Z,3.80
2018-02-10T02:33:13.652Z,3.80
2018-02-10T02:35:41.880Z,3.80
2018-02-10T02:38:10.131Z,3.80
2018-02-10T02:40:39.528Z,3.90
2018-02-10T02:43:07.774Z,3.90
2018-02-10T02:45:36.008Z,3.90
2018-02-10T02:48:04.272Z,3.90
2018-02-10T02:50:32.900Z,4.00
2018-02-10T02:53:02.650Z,4.00
2018-02-10T02:55:30.932Z,4.00
2018-02-10T02:57:59.174Z,3.90
2018-02-10T03:00:27.419Z,3.90
2018-02-10T03:02:56.467Z,4.00
2018-02-10T03:05:24.696Z,4.00
2018-02-10T03:07:52.941Z,3.90
2018-02-10T03:10:21.222Z,4.00
2018-02-10T03:12:49.474Z,4.00
2018-02-10T03:15:17.751Z,4.00
2018-02-10T03:17:46.416Z,4.00
2018-02-10T03:20:15.430Z,4.00
2018-02-10T03:22:43.664Z,4.00
2018-02-10T03:25:12.706Z,4.00
2018-02-10T03:27:40.935Z,3.90
2018-02-10T03:30:10.318Z,4.00
2018-02-10T03:32:39.014Z,4.00
2018-02-10T03:35:08.752Z,4.00
2018-02-10T03:37:38.132Z,4.00
2018-02-10T03:40:07.186Z,4.00
2018-02-10T03:42:35.411Z,4.00
2018-02-10T03:45:04.415Z,4.00
2018-02-10T03:47:33.075Z,4.00
2018-02-10T03:50:02.815Z,4.10
2018-02-10T03:52:31.044Z,4.10
2018-02-10T03:54:59.315Z,4.10
2018-02-10T03:57:27.548Z,4.20
2018-02-10T03:59:55.779Z,4.20
2018-02-10T04:02:25.195Z,4.20
2018-02-10T04:04:53.430Z,4.30
2018-02-10T04:07:21.678Z,4.20
2018-02-10T04:12:20.234Z,4.10
2018-02-10T04:17:17.987Z,4.20
2018-02-10T04:19:46.998Z,4.20
2018-02-10T04:22:16.368Z,4.20
2018-02-10T04:24:46.158Z,4.20
2018-02-10T04:27:14.392Z,4.20
2018-02-10T04:29:42.634Z,4.20
2018-02-10T04:32:11.900Z,4.20
2018-02-10T04:37:09.614Z,4.20
2018-02-10T04:39:38.258Z,4.20
2018-02-10T04:42:06.897Z,4.30
2018-02-10T04:44:35.142Z,4.30
2018-02-10T04:49:33.640Z,4.40
2018-02-10T04:52:01.888Z,4.30
2018-02-10T04:54:30.147Z,4.30
2018-02-10T05:01:58.890Z,4.40
2018-02-10T05:04:28.284Z,4.30
2018-02-10T05:06:57.279Z,4.20
2018-02-10T05:09:26.311Z,4.30
2018-02-10T05:11:54.547Z,4.30
2018-02-10T05:14:22.795Z,4.30
2018-02-10T05:16:52.572Z,4.30
2018-02-10T05:19:20.815Z,4.30
2018-02-10T05:21:49.056Z,4.30
2018-02-10T05:24:17.355Z,4.30
2018-02-10T05:26:45.579Z,4.20
2018-02-10T05:29:13.815Z,4.10
2018-02-10T05:34:11.943Z,4.20
2018-02-10T05:41:41.728Z,4.20
2018-02-10T05:44:09.994Z,4.30
2018-02-10T05:46:39.022Z,4.40
2018-02-10T05:49:08.042Z,4.40
2018-02-10T05:51:36.273Z,4.40
2018-02-10T05:54:04.558Z,4.40
2018-02-10T05:59:02.676Z,4.40
2018-02-10T06:01:31.004Z,4.50
2018-02-10T06:03:59.960Z,4.50
2018-02-10T06:06:29.148Z,4.50
2018-02-10T06:08:57.420Z,4.50
2018-02-10T06:11:25.656Z,4.50
2018-02-10T06:16:24.183Z,4.50
2018-02-10T06:21:22.296Z,4.50
2018-02-10T06:23:51.706Z,4.50
2018-02-10T06:26:20.661Z,4.60
2018-02-10T06:28:48.903Z,4.60
2018-02-10T06:33:47.966Z,4.60
2018-02-10T06:36:16.196Z,4.60
2018-02-10T06:41:14.358Z,4.40
2018-02-10T06:43:43.350Z,4.50
2018-02-10T06:46:12.764Z,4.40
2018-02-10T06:48:41.005Z,4.40
2018-02-10T06:51:09.240Z,4.30
2018-02-10T06:53:37.511Z,4.40
2018-02-10T06:56:05.745Z,4.40
2018-02-10T06:58:33.979Z,4.40
2018-02-10T07:01:02.256Z,4.50
2018-02-10T07:03:30.487Z,4.50
2018-02-10T07:05:58.729Z,4.50
2018-02-10T07:08:28.530Z,4.50
2018-02-10T07:10:57.896Z,4.50
2018-02-10T07:13:26.912Z,4.50
2018-02-10T07:15:55.953Z,4.40
2018-02-10T07:18:24.198Z,4.40
2018-02-10T07:23:22.354Z,4.40
2018-02-10T07:28:20.459Z,4.40
2018-02-10T07:33:18.968Z,4.50
2018-02-10T07:35:47.595Z,4.50
2018-02-10T07:38:15.836Z,4.50
2018-02-10T07:40:45.577Z,4.40
2018-02-10T07:50:43.416Z,4.40
2018-02-10T07:53:11.703Z,4.30
2018-02-10T08:00:40.060Z,4.40
2018-02-10T08:05:38.200Z,4.40
2018-02-10T08:10:36.312Z,4.40
2018-02-10T08:15:34.958Z,4.30
2018-02-10T08:20:33.478Z,4.30
2018-02-10T08:25:31.940Z,4.30
2018-02-10T08:28:00.224Z,4.30
2018-02-10T08:30:29.230Z,4.40
2018-02-10T08:32:58.601Z,4.30
2018-02-10T08:35:27.651Z,4.30
2018-02-10T08:37:55.890Z,4.40
2018-02-10T08:40:25.639Z,4.50
2018-02-10T08:42:53.904Z,4.50
2018-02-10T08:45:22.144Z,4.50
2018-02-10T08:50:20.310Z,4.50
2018-02-10T08:52:48.572Z,4.50
2018-02-10T08:57:47.096Z,4.50
2018-02-10T09:02:45.202Z,4.50
2018-02-10T09:05:13.484Z,4.50
2018-02-10T09:07:41.724Z,4.50
2018-02-10T09:10:09.955Z,4.60
2018-02-10T09:12:39.386Z,4.60
2018-02-10T09:15:08.395Z,4.60
2018-02-10T09:20:07.680Z,4.70
2018-02-10T09:25:05.814Z,4.60
2018-02-10T09:27:34.843Z,4.60
2018-02-10T09:30:03.080Z,4.60
2018-02-10T09:32:32.088Z,4.60
2018-02-10T09:35:00.356Z,4.70
2018-02-10T09:37:29.356Z,4.70
2018-02-10T09:39:57.594Z,4.70
2018-02-10T09:47:25.603Z,4.80
2018-02-10T09:49:53.870Z,4.90
2018-02-10T09:52:22.125Z,4.90
2018-02-10T09:57:21.415Z,4.90
2018-02-10T10:02:19.562Z,5.10
2018-02-10T10:07:17.744Z,5.10
2018-02-10T10:09:46.754Z,5.10
2018-02-10T10:12:15.784Z,5.00
2018-02-10T10:14:44.019Z,5.10
2018-02-10T10:17:12.266Z,5.10
2018-02-10T10:19:40.562Z,5.10
2018-02-10T10:22:08.819Z,5.10
2018-02-10T10:24:37.057Z,5.20
2018-02-10T10:27:05.738Z,5.20
2018-02-10T10:29:35.476Z,5.20
2018-02-10T10:34:33.979Z,5.30
2018-02-10T10:37:02.994Z,5.30
2018-02-10T10:39:31.242Z,5.30
2018-02-10T10:41:59.523Z,5.20
2018-02-10T10:44:27.759Z,5.20
2018-02-10T10:46:57.515Z,5.20
2018-02-10T10:49:25.822Z,5.20
2018-02-10T10:51:54.819Z,5.20
2018-02-10T10:54:23.842Z,5.30
2018-02-10T10:56:52.164Z,5.30
2018-02-10T10:59:20.416Z,5.30
2018-02-10T11:01:48.675Z,5.30
2018-02-10T11:04:17.005Z,5.30
2018-02-10T11:06:46.699Z,5.30
2018-02-10T11:09:15.328Z,5.40
2018-02-10T11:16:43.663Z,5.50
2018-02-10T11:24:13.208Z,5.60
2018-02-10T11:29:11.352Z,5.50
2018-02-10T11:31:40.366Z,5.60
2018-02-10T11:34:09.407Z,5.50
2018-02-10T11:36:38.070Z,5.60
2018-02-10T11:41:36.228Z,5.70
2018-02-10T11:44:04.451Z,5.70
2018-02-10T11:49:02.997Z,5.70
2018-02-10T11:51:31.199Z,5.70
2018-02-10T11:54:00.561Z,5.60
2018-02-10T11:58:58.672Z,5.70
2018-02-10T12:01:28.040Z,5.70
2018-02-10T12:03:57.120Z,5.70
2018-02-10T12:06:26.856Z,5.70
2018-02-10T12:11:26.098Z,5.90
2018-02-10T12:13:55.469Z,5.90
2018-02-10T12:16:24.126Z,5.90
2018-02-10T12:18:52.402Z,6.00
2018-02-10T12:21:20.645Z,6.00
2018-02-10T12:28:48.386Z,6.00
2018-02-10T12:31:17.765Z,6.00
2018-02-10T12:33:47.107Z,6.00
2018-02-10T12:36:16.476Z,6.00
2018-02-10T12:41:14.596Z,6.00
2018-02-10T12:43:43.970Z,6.10
2018-02-10T12:46:13.016Z,6.10
2018-02-10T12:49:00.148Z,6.10
2018-02-10T12:51:29.171Z,6.20
2018-02-10T12:53:57.423Z,6.20
2018-02-10T12:56:25.674Z,6.20
2018-02-10T12:58:53.931Z,6.20
2018-02-10T13:01:23.692Z,6.20
2018-02-10T13:03:51.951Z,6.20
2018-02-10T13:06:20.907Z,6.20
2018-02-10T13:08:50.702Z,6.20
2018-02-10T13:11:20.444Z,6.30
2018-02-10T13:16:19.232Z,6.30
2018-02-10T13:21:17.327Z,6.20
2018-02-10T13:23:45.563Z,6.30
2018-02-10T13:26:14.564Z,6.30
2018-02-10T13:31:13.048Z,6.30
2018-02-10T13:33:41.683Z,6.40
2018-02-10T13:36:11.451Z,6.40
2018-02-10T13:41:09.555Z,6.50
2018-02-10T13:43:38.588Z,6.40
2018-02-10T13:46:07.591Z,6.50
2018-02-10T13:48:39.940Z,6.50
2018-02-10T13:51:08.947Z,6.50
2018-02-10T13:58:36.174Z,6.70
2018-02-10T14:03:36.876Z,6.80
2018-02-10T14:06:05.500Z,6.80
2018-02-10T14:16:02.919Z,6.90
2018-02-10T14:21:01.063Z,7.00
2018-02-10T14:23:29.302Z,7.10
2018-02-10T14:25:58.351Z,7.20
2018-02-10T14:28:27.720Z,7.20
2018-02-10T14:30:55.958Z,7.20
2018-02-10T14:33:25.023Z,7.20
2018-02-10T14:35:54.392Z,7.20
2018-02-10T14:38:23.063Z,7.20
2018-02-10T14:40:52.844Z,7.20
2018-02-10T14:43:21.090Z,7.20
2018-02-10T14:45:49.342Z,7.20
2018-02-10T14:50:48.644Z,7.20
2018-02-10T14:53:18.413Z,7.30
2018-02-10T15:00:47.712Z,7.20
2018-02-10T15:05:45.848Z,7.30
2018-02-10T15:08:14.076Z,7.20
2018-02-10T15:10:42.340Z,7.20
2018-02-10T15:13:12.161Z,7.10
2018-02-10T15:20:40.489Z,7.00
2018-02-10T15:23:08.767Z,6.90
2018-02-10T15:30:48.920Z,6.80
2018-02-10T15:33:30.144Z,6.80
2018-02-10T15:35:58.376Z,6.80
2018-02-10T15:38:27.036Z,6.80
2018-02-10T15:40:55.308Z,6.80
2018-02-10T15:43:23.548Z,6.80
2018-02-10T15:48:21.431Z,6.80
2018-02-10T15:50:49.680Z,6.80
2018-02-10T15:53:17.954Z,6.70
2018-02-10T15:55:46.220Z,6.80
2018-02-10T15:58:15.956Z,6.80
2018-02-10T16:03:13.698Z,6.90
2018-02-10T16:08:11.779Z,6.70
2018-02-10T16:10:40.337Z,6.70
2018-02-10T16:13:09.340Z,6.60
2018-02-10T16:15:38.363Z,6.50
2018-02-10T16:18:07.057Z,6.50
2018-02-10T16:20:35.300Z,6.50
2018-02-10T16:23:04.690Z,6.40
2018-02-10T16:25:32.970Z,6.30
2018-02-10T16:28:01.179Z,6.20
2018-02-10T16:30:29.416Z,6.20
2018-02-10T16:37:59.914Z,6.10
2018-02-10T16:40:28.190Z,6.00
2018-02-10T16:47:55.820Z,5.80
2018-02-10T16:50:24.826Z,5.70
2018-02-10T16:52:54.200Z,5.60
2018-02-10T16:55:23.990Z,5.60
2018-02-10T16:57:52.611Z,5.50
2018-02-10T17:00:22.355Z,5.50
2018-02-10T17:02:51.395Z,5.50
2018-02-10T17:05:21.162Z,5.40
2018-02-10T17:10:18.915Z,5.30
2018-02-10T17:15:17.427Z,5.30
2018-02-10T17:20:15.908Z,5.20
2018-02-10T17:22:44.218Z,5.20
2018-02-10T17:27:42.307Z,5.20
2018-02-10T17:30:10.589Z,5.10
2018-02-10T17:32:39.583Z,5.10
2018-02-10T17:40:08.002Z,5.00
2018-02-10T17:42:36.246Z,4.90
2018-02-10T17:47:34.379Z,4.90
2018-02-10T17:50:03.628Z,4.80
2018-02-10T17:52:32.655Z,4.90
2018-02-10T17:57:31.322Z,4.80
2018-02-10T18:02:29.441Z,4.70
2018-02-10T18:04:58.123Z,4.70
2018-02-10T18:07:26.358Z,4.80
2018-02-10T18:12:24.488Z,4.80
2018-02-10T18:14:53.488Z,4.80
2018-02-10T18:17:21.735Z,4.80
2018-02-10T18:19:49.998Z,4.80
2018-02-10T18:22:18.249Z,4.90
2018-02-10T18:24:46.540Z,4.80
2018-02-10T18:32:14.487Z,4.70
2018-02-10T18:34:42.775Z,4.70
2018-02-10T18:39:41.297Z,4.70
2018-02-10T18:47:09.998Z,4.50
2018-02-10T18:49:39.080Z,4.50
2018-02-10T18:52:07.315Z,4.50
2018-02-10T18:54:35.543Z,4.60
2018-02-10T18:57:05.320Z,4.60
2018-02-10T19:04:32.560Z,4.60
2018-02-10T19:07:01.943Z,4.60
2018-02-10T19:09:30.184Z,4.60
2018-02-10T19:11:58.468Z,4.60
2018-02-10T19:14:28.220Z,4.60
2018-02-10T19:16:57.306Z,4.60
2018-02-10T19:19:25.574Z,4.60
2018-02-10T19:21:54.944Z,4.60
2018-02-10T19:26:53.458Z,4.60
2018-02-10T19:31:51.958Z,4.60
2018-02-10T19:41:51.371Z,4.60
2018-02-10T19:44:19.702Z,4.60
2018-02-10T19:49:17.919Z,4.60
2018-02-10T19:51:46.160Z,4.60
2018-02-10T19:54:14.800Z,4.60
2018-02-10T19:56:43.067Z,4.60
2018-02-10T20:01:40.881Z,4.60
2018-02-10T20:04:09.658Z,4.50
2018-02-10T20:11:37.896Z,4.60
2018-02-10T20:14:06.957Z,4.60
2018-02-10T20:16:35.403Z,4.60
2018-02-10T20:19:05.148Z,4.50
2018-02-10T20:24:03.575Z,4.40
2018-02-10T20:29:03.648Z,4.50
2018-02-10T20:34:01.784Z,4.60
2018-02-10T20:36:30.061Z,4.60
2018-02-10T20:38:58.338Z,4.60
2018-02-10T20:43:56.742Z,4.60
2018-02-10T20:46:24.980Z,4.60
2018-02-10T20:51:23.491Z,4.60
2018-02-10T20:53:51.737Z,4.60
2018-02-10T20:56:21.606Z,4.50
2018-02-10T21:08:47.975Z,4.50
2018-02-10T21:11:17.339Z,4.50
2018-02-10T21:13:46.391Z,4.50
2018-02-10T21:16:14.646Z,4.50
2018-02-10T21:18:44.046Z,4.60
2018-02-10T21:23:43.335Z,4.60
2018-02-10T21:26:12.734Z,4.60
2018-02-10T21:28:41.172Z,4.60
2018-02-10T21:33:39.284Z,4.60
2018-02-10T21:36:07.745Z,4.60
2018-02-10T21:41:06.802Z,4.60
2018-02-10T21:46:05.233Z,4.70
2018-02-10T21:51:05.304Z,4.60
2018-02-10T21:56:03.610Z,4.60
2018-02-10T21:58:31.856Z,4.60
2018-02-10T22:03:30.026Z,4.60
2018-02-10T22:05:58.333Z,4.60
2018-02-10T22:08:26.568Z,4.60
2018-02-10T22:13:26.913Z,4.60
2018-02-10T22:18:25.587Z,4.70
2018-02-10T22:23:25.624Z,4.70
2018-02-10T22:25:54.988Z,4.60
2018-02-10T22:28:23.256Z,4.60
2018-02-10T22:35:51.752Z,4.60
2018-02-10T22:45:54.305Z,4.60
2018-02-10T22:48:22.942Z,4.60
2018-02-10T22:50:52.672Z,4.70
2018-02-10T22:53:21.144Z,4.60
2018-02-10T22:55:50.874Z,4.60
2018-02-10T23:05:48.871Z,4.60
2018-02-10T23:08:17.628Z,4.60
2018-02-10T23:13:15.564Z,4.60
2018-02-10T23:15:45.602Z,4.60
2018-02-10T23:18:13.842Z,4.60
2018-02-10T23:20:42.075Z,4.60
2018-02-10T23:28:10.080Z,4.60
2018-02-10T23:30:38.364Z,4.60
2018-02-10T23:35:36.584Z,4.70
2018-02-10T23:40:34.356Z,4.80
2018-02-10T23:45:32.477Z,4.70
2018-02-10T23:50:30.567Z,4.80
2018-02-10T23:52:58.840Z,4.70
2018-02-10T23:55:27.080Z,4.70
